Honiara International Airport
AGGH : rendu visible

Aérodrome :











RETROUVEZ-NOUS SUR...

 
LOGIN :

S'inscrire | Disclaimer

   EN    FR    IT 

 









Légende :    VFR   VFR Marginal   IFR   IFR Intensif   IFR Très Intensif
Visi : 
Plafond : 
>= 8 km
>= 3000ft
5 à 8 km
1000 à 3000 ft
1500m à 5 km
500 à 1000 ft
800 à 1500m
200 à 500 ft
< 800m
< 200 ft
Symboles :   Orages  Brouillard  Fortes neiges  Fortes précipitations  Vent > 20 kt






- Altitude de l'aérodrome : 28 ft
- Code IATA : HIR


AGGH - Honiara International

DERNIER METAR :
  • 020200Z 05008KT 9999 FEW020 32/26 Q1010

METARs EXPIRÉS :
  • 020100Z 05008KT 9999 FEW020 FEW021CB 32/26 Q1011 RMK/ CB TO N
  • 020000Z 05007KT 9999 FEW020 32/28 Q1012

TAF TAF AGGH
Valide du 02 à 00h jusqu'au 03 à 00h UTC


012310Z 0200/0224 09010KT 9999 SCT018 T 31 32 31 28 Q 1012 1010 1009 1011
FIR AGGG / Océanie



MET'MAP, la Météo Aéronautique d'un coup d'oeil ! - Copyright ORBIFLY Décembre 2007 - Disclaimer

ORBIFLY MET'MAP TEAM :

Programmation & Développement : Alexandra Zaïnal
Sur une idée originale de : Baudouin d'Aumeries
Assistance à la programmation : Marc-Olivier Méhu
Soutien technique & logistique : Manuel Goepfert

Contact : metmap@orbifly.com




SOURCES & CREDITS :

   NOAA       Earth
Advisory